createdAt,value
2022-09-03T00:06:10.980Z,978.35
2022-09-03T00:18:11.475Z,978.30
2022-09-03T00:30:14.610Z,978.30
2022-09-03T00:42:12.363Z,978.23
2022-09-03T00:54:12.798Z,978.30
2022-09-03T01:06:13.296Z,978.30
2022-09-03T01:18:13.760Z,978.26
2022-09-03T01:30:14.172Z,978.18
2022-09-03T01:42:14.623Z,978.17
2022-09-03T01:54:20.812Z,978.20
2022-09-03T02:06:15.543Z,978.19
2022-09-03T02:18:16.021Z,978.09
2022-09-03T02:30:16.429Z,978.18
2022-09-03T02:42:16.893Z,978.16
2022-09-03T02:54:20.952Z,978.25
2022-09-03T03:06:17.808Z,978.27
2022-09-03T03:18:18.249Z,978.24
2022-09-03T03:30:18.709Z,978.31
2022-09-03T03:42:19.159Z,978.25
2022-09-03T03:54:19.604Z,978.25
2022-09-03T04:06:20.047Z,978.21
2022-09-03T04:18:20.562Z,978.26
2022-09-03T04:30:20.949Z,978.38
2022-09-03T04:42:21.391Z,978.38
2022-09-03T04:54:21.893Z,978.36
2022-09-03T05:06:22.363Z,978.41
2022-09-03T05:18:22.832Z,978.33
2022-09-03T05:30:23.251Z,978.21
2022-09-03T05:42:23.693Z,978.18
2022-09-03T05:54:24.186Z,978.24
2022-09-03T06:06:24.595Z,978.24
2022-09-03T06:18:25.254Z,978.15
2022-09-03T06:30:25.606Z,978.06
2022-09-03T06:42:25.984Z,978.01
2022-09-03T06:54:26.409Z,978.04
2022-09-03T07:06:26.870Z,978.05
2022-09-03T07:18:27.307Z,978.05
2022-09-03T07:30:27.799Z,977.94
2022-09-03T07:42:28.231Z,978.18
2022-09-03T07:54:28.697Z,978.15
2022-09-03T08:06:29.130Z,978.34
2022-09-03T08:18:29.603Z,978.24
2022-09-03T08:30:30.037Z,978.17
2022-09-03T08:42:30.498Z,978.18
2022-09-03T08:54:30.970Z,978.17
2022-09-03T09:06:31.446Z,978.04
2022-09-03T09:18:31.880Z,978.07
2022-09-03T09:30:32.331Z,978.11
2022-09-03T09:42:32.772Z,978.40
2022-09-03T09:54:33.232Z,978.11
2022-09-03T10:06:33.691Z,978.21
2022-09-03T10:18:34.125Z,978.06
2022-09-03T10:30:34.610Z,978.13
2022-09-03T10:42:35.085Z,978.12
2022-09-03T10:54:35.518Z,978.08
2022-09-03T11:06:35.968Z,978.17
2022-09-03T11:18:36.394Z,977.99
2022-09-03T11:30:36.971Z,977.97
2022-09-03T11:42:37.300Z,977.95
2022-09-03T11:54:37.796Z,978.03
2022-09-03T12:06:38.255Z,978.02
2022-09-03T12:18:38.711Z,977.91
2022-09-03T12:30:39.207Z,977.84
2022-09-03T12:42:39.601Z,977.72
2022-09-03T12:54:40.068Z,977.70
2022-09-03T13:06:40.558Z,977.72
2022-09-03T13:18:40.996Z,977.51
2022-09-03T13:30:41.482Z,977.41
2022-09-03T13:42:41.948Z,977.28
2022-09-03T13:54:49.051Z,977.31
2022-09-03T14:06:42.830Z,977.25
2022-09-03T14:18:43.291Z,977.39
2022-09-03T14:30:43.741Z,977.14
2022-09-03T14:42:44.236Z,977.17
2022-09-03T14:54:44.623Z,977.14
2022-09-03T15:06:45.167Z,977.21
2022-09-03T15:18:45.660Z,977.34
2022-09-03T15:30:46.088Z,977.43
2022-09-03T15:42:46.497Z,977.52
2022-09-03T15:54:46.945Z,977.53
2022-09-03T16:06:47.406Z,977.50
2022-09-03T16:18:49.907Z,977.68
2022-09-03T16:30:48.323Z,977.56
2022-09-03T16:42:48.770Z,977.61
2022-09-03T16:54:56.090Z,977.59
2022-09-03T17:06:49.713Z,977.65
2022-09-03T17:18:50.094Z,977.76
2022-09-03T17:30:50.623Z,977.84
2022-09-03T17:42:51.053Z,977.86
2022-09-03T17:54:51.542Z,977.81
2022-09-03T18:06:52.269Z,977.86
2022-09-03T18:18:52.383Z,977.93
2022-09-03T18:30:52.912Z,978.03
2022-09-03T18:42:53.358Z,978.03
2022-09-03T18:55:06.924Z,978.20
2022-09-03T19:06:54.582Z,978.20
2022-09-03T19:18:54.711Z,978.27
2022-09-03T19:30:55.206Z,978.26
2022-09-03T19:42:55.600Z,978.29
2022-09-03T19:54:56.061Z,978.46
2022-09-03T20:06:56.497Z,978.46
2022-09-03T20:18:56.987Z,978.68
2022-09-03T20:30:57.466Z,978.56
2022-09-03T20:42:57.892Z,978.53
2022-09-03T20:54:58.348Z,978.63
2022-09-03T21:06:58.803Z,978.57
2022-09-03T21:18:59.272Z,978.68
2022-09-03T21:30:59.757Z,978.63
2022-09-03T21:43:00.135Z,978.76
2022-09-03T21:55:00.630Z,978.61
2022-09-03T22:07:01.073Z,978.72
2022-09-03T22:19:01.480Z,978.85
2022-09-03T22:31:02.066Z,978.98
2022-09-03T22:43:02.454Z,978.86
2022-09-03T22:55:02.881Z,979.08
2022-09-03T23:07:03.320Z,979.07
2022-09-03T23:19:03.786Z,979.07
2022-09-03T23:31:04.244Z,979.14
2022-09-03T23:43:04.670Z,979.21
2022-09-03T23:55:05.128Z,979.31
